Time;durP1;ratioP1;P1;durP2;ratioP2;P2;SDS_P1;SDS_P2;PMS_P1;PMS_P2;Temp;Humidity;BMP_temperature;BMP_pressure;BME280_temperature;BME280_humidity;BME280_pressure;Samples;Min_cycle;Max_cycle;Signal;HPM_P1;HPM_P2
2021/09/25 00:00:37;;;;;;;5.43;4.25;;;;;;;14.90;64.81;97343.16;4910551;28;20252;-80
2021/09/25 00:03:04;;;;;;;5.47;4.28;;;;;;;14.84;64.91;97338.97;4885480;28;20317;-80
2021/09/25 00:05:35;;;;;;;6.95;5.00;;;;;;;14.83;64.87;97337.44;4900442;28;20232;-80
2021/09/25 00:08:02;;;;;;;6.47;4.68;;;;;;;14.92;65.46;97336.59;4907079;28;20193;-80
2021/09/25 00:10:28;;;;;;;5.72;4.57;;;;;;;14.90;64.75;97332.69;4894036;28;20237;-80
2021/09/25 00:12:53;;;;;;;5.85;4.88;;;;;;;14.87;64.70;97333.22;4878377;28;20333;-80
2021/09/25 00:15:20;;;;;;;5.40;4.13;;;;;;;14.85;64.44;97343.19;4901925;28;20673;-80
2021/09/25 00:17:46;;;;;;;5.45;4.55;;;;;;;14.80;64.42;97341.34;4896276;28;20296;-80
2021/09/25 00:20:13;;;;;;;6.88;4.82;;;;;;;14.84;64.45;97337.16;4886788;28;20275;-80
2021/09/25 00:22:38;;;;;;;4.72;4.07;;;;;;;14.82;64.17;97341.88;4880556;28;20202;-80
2021/09/25 00:25:04;;;;;;;5.57;4.13;;;;;;;14.73;63.47;97341.63;4921140;28;20217;-80
2021/09/25 00:27:30;;;;;;;4.30;3.90;;;;;;;14.68;63.35;97341.66;4876975;28;20210;-80
2021/09/25 00:29:56;;;;;;;4.97;4.00;;;;;;;14.56;63.77;97334.03;4891548;28;20106;-80
2021/09/25 00:32:21;;;;;;;5.72;4.10;;;;;;;14.57;63.61;97340.88;4892846;28;20227;-80
2021/09/25 00:34:47;;;;;;;5.15;3.67;;;;;;;14.55;63.45;97342.97;4889992;28;20256;-80
2021/09/25 00:37:12;;;;;;;5.53;3.42;;;;;;;14.50;63.18;97339.59;4885415;28;20176;-80
2021/09/25 00:39:37;;;;;;;5.28;4.10;;;;;;;14.46;63.35;97339.31;4904262;28;20215;-80
2021/09/25 00:42:03;;;;;;;5.07;4.40;;;;;;;14.45;63.95;97337.75;4895670;28;20285;-80
2021/09/25 00:44:28;;;;;;;5.55;4.68;;;;;;;14.53;64.61;97333.78;4923151;28;20186;-80
2021/09/25 00:46:56;;;;;;;6.28;4.07;;;;;;;14.56;64.40;97338.50;4921604;28;20661;-80
2021/09/25 00:49:22;;;;;;;5.43;3.72;;;;;;;14.59;63.16;97343.25;4918921;28;20198;-80
2021/09/25 00:51:48;;;;;;;4.90;4.25;;;;;;;14.62;62.45;97345.34;4989837;28;20478;-80
2021/09/25 00:54:14;;;;;;;5.70;3.78;;;;;;;14.63;62.69;97349.53;5005948;28;20172;-80
2021/09/25 00:56:40;;;;;;;4.80;3.95;;;;;;;14.55;62.32;97348.22;4974627;28;20033;-80
2021/09/25 00:59:06;;;;;;;4.43;3.90;;;;;;;14.50;62.43;97342.22;4990496;28;20105;-80
2021/09/25 01:01:32;;;;;;;5.25;4.35;;;;;;;14.35;62.95;97346.41;4974063;28;20442;-80
2021/09/25 01:03:57;;;;;;;4.43;4.03;;;;;;;14.34;63.45;97344.84;5002416;23;20068;-79
2021/09/25 01:06:22;;;;;;;5.32;3.97;;;;;;;14.32;63.51;97340.91;5012408;28;20040;-79
2021/09/25 01:08:48;;;;;;;4.95;4.35;;;;;;;14.31;63.53;97345.38;4980314;28;20176;-79
2021/09/25 01:11:13;;;;;;;5.43;3.90;;;;;;;14.23;63.61;97340.66;5010378;28;20042;-79
2021/09/25 01:13:38;;;;;;;5.07;4.03;;;;;;;14.19;64.21;97350.09;4994202;28;20481;-79
2021/09/25 01:16:04;;;;;;;5.50;4.25;;;;;;;14.29;63.02;97346.66;4993986;28;20523;-79
2021/09/25 01:18:29;;;;;;;4.75;3.70;;;;;;;14.27;63.03;97344.31;5010715;28;20042;-79
2021/09/25 01:21:03;;;;;;;6.30;3.85;;;;;;;14.05;63.65;97342.78;5012658;28;20043;-79
2021/09/25 01:23:28;;;;;;;4.70;3.85;;;;;;;14.14;63.65;97345.66;5012452;28;20022;-79
2021/09/25 01:25:54;;;;;;;4.82;3.90;;;;;;;14.08;63.98;97338.06;5011965;28;20023;-79
2021/09/25 01:28:19;;;;;;;4.60;3.67;;;;;;;14.02;64.03;97337.28;4996235;28;20087;-79
2021/09/25 01:30:44;;;;;;;4.93;3.90;;;;;;;14.02;64.06;97337.28;4998505;28;20032;-79
2021/09/25 01:33:10;;;;;;;5.53;4.32;;;;;;;14.05;63.88;97336.72;5034119;28;20088;-79
2021/09/25 01:35:35;;;;;;;7.10;4.28;;;;;;;14.10;64.29;97339.34;5016660;28;20056;-80
2021/09/25 01:38:02;;;;;;;5.30;4.80;;;;;;;14.18;64.69;97348.53;5000243;28;20025;-80
2021/09/25 01:40:27;;;;;;;5.38;4.40;;;;;;;14.16;64.03;97340.16;5016749;28;20112;-79
2021/09/25 01:42:56;;;;;;;5.40;4.22;;;;;;;14.03;63.98;97337.00;5000416;28;20117;-79
2021/09/25 01:45:21;;;;;;;4.63;4.00;;;;;;;14.07;63.53;97345.13;5015768;28;20033;-79
2021/09/25 01:47:47;;;;;;;4.68;4.05;;;;;;;13.91;63.53;97333.84;5000292;28;20056;-79
2021/09/25 01:50:14;;;;;;;4.38;3.55;;;;;;;13.74;63.10;97339.34;5016155;28;20025;-79
2021/09/25 01:52:40;;;;;;;4.40;3.30;;;;;;;13.72;62.80;97343.28;5015711;28;20029;-79
2021/09/25 01:55:06;;;;;;;3.90;3.30;;;;;;;13.67;62.96;97338.81;5016150;28;20033;-79
2021/09/25 01:57:32;;;;;;;5.45;3.55;;;;;;;13.64;63.40;97345.34;5016487;28;20124;-79
2021/09/25 01:59:58;;;;;;;5.45;4.10;;;;;;;13.54;63.68;97347.97;5032653;28;20105;-79
2021/09/25 02:02:23;;;;;;;4.32;3.05;;;;;;;13.51;63.30;97345.06;5016409;28;20029;-79
2021/09/25 02:04:49;;;;;;;4.50;3.90;;;;;;;13.47;63.24;97342.19;4999602;28;20038;-79
2021/09/25 02:07:18;;;;;;;5.05;4.00;;;;;;;13.28;63.60;97353.09;5000183;28;20045;-79
2021/09/25 02:09:45;;;;;;;4.85;3.45;;;;;;;13.35;63.64;97349.47;5016206;28;20033;-79
2021/09/25 02:12:10;;;;;;;4.55;3.78;;;;;;;13.30;63.48;97343.16;5000050;28;20038;-78
2021/09/25 02:14:36;;;;;;;6.30;3.92;;;;;;;13.22;63.69;97346.25;4999636;28;20392;-79
2021/09/25 02:17:02;;;;;;;5.72;4.43;;;;;;;13.22;64.12;97348.88;5015835;28;20029;-79
2021/09/25 02:19:27;;;;;;;5.78;4.45;;;;;;;13.24;64.10;97349.41;4999486;28;20431;-79
2021/09/25 02:21:53;;;;;;;7.85;4.15;;;;;;;13.20;64.37;97345.75;5015895;28;20481;-80
2021/09/25 02:24:18;;;;;;;4.80;3.88;;;;;;;13.24;64.20;97346.78;4999114;28;20029;-79
2021/09/25 02:26:44;;;;;;;4.35;3.67;;;;;;;13.18;64.00;97337.38;5011503;28;20105;-79
2021/09/25 02:29:09;;;;;;;4.90;4.15;;;;;;;13.18;64.08;97342.59;5015756;28;20120;-80
2021/09/25 02:31:35;;;;;;;6.35;4.00;;;;;;;13.15;64.11;97337.88;5015674;28;20125;-80
2021/09/25 02:34:00;;;;;;;6.40;4.00;;;;;;;13.15;64.28;97339.72;5015614;28;20033;-79
2021/09/25 02:36:26;;;;;;;5.45;4.18;;;;;;;13.13;64.80;97342.59;4986605;28;20080;-79
2021/09/25 02:38:51;;;;;;;4.72;3.65;;;;;;;13.12;64.58;97343.63;4996256;28;20032;-79
2021/09/25 02:41:17;;;;;;;4.95;3.97;;;;;;;13.10;64.09;97341.25;4979459;28;20065;-79
2021/09/25 02:43:43;;;;;;;5.40;3.92;;;;;;;13.10;64.31;97345.72;5001694;28;20037;-79
2021/09/25 02:46:08;;;;;;;4.82;3.50;;;;;;;13.09;64.44;97336.28;4999019;28;20034;-79
2021/09/25 02:48:34;;;;;;;4.53;3.63;;;;;;;13.07;64.38;97333.13;4999314;28;20416;-79
2021/09/25 02:51:00;;;;;;;5.90;4.10;;;;;;;13.02;64.60;97328.69;4999061;28;20534;-79
2021/09/25 02:53:26;;;;;;;6.07;3.72;;;;;;;13.03;64.69;97332.09;4982549;28;20049;-79
2021/09/25 02:55:51;;;;;;;4.43;3.50;;;;;;;13.02;64.68;97320.84;5015141;28;20033;-79
2021/09/25 02:58:17;;;;;;;5.65;3.85;;;;;;;13.06;64.95;97321.13;5015698;28;20055;-79
2021/09/25 03:00:43;;;;;;;4.72;3.85;;;;;;;13.07;64.72;97325.28;4999281;28;20109;-79
2021/09/25 03:03:08;;;;;;;5.03;3.70;;;;;;;13.07;64.44;97320.88;4998627;28;20041;-79
2021/09/25 03:05:34;;;;;;;6.78;3.78;;;;;;;13.03;64.67;97317.19;5015178;28;20029;-80
2021/09/25 03:07:59;;;;;;;6.40;4.35;;;;;;;13.01;64.79;97318.50;5015317;28;20060;-80
2021/09/25 03:10:24;;;;;;;6.22;4.20;;;;;;;13.03;64.86;97319.03;5015042;28;20037;-80
2021/09/25 03:12:50;;;;;;;6.22;4.65;;;;;;;13.02;64.55;97309.59;4998550;28;20388;-80
2021/09/25 03:15:15;;;;;;;6.97;4.72;;;;;;;13.02;64.99;97310.41;4982198;28;20123;-80
2021/09/25 03:17:40;;;;;;;5.90;4.57;;;;;;;13.07;65.01;97315.66;5014904;28;20037;-79
2021/09/25 03:20:06;;;;;;;5.70;4.60;;;;;;;13.03;65.06;97309.34;5014891;28;20033;-80
2021/09/25 03:22:32;;;;;;;5.72;4.30;;;;;;;13.07;64.96;97315.66;5015392;28;20419;-80
2021/09/25 03:24:58;;;;;;;5.95;4.82;;;;;;;13.04;65.04;97304.91;4998365;28;20033;-80
2021/09/25 03:27:24;;;;;;;6.05;4.40;;;;;;;13.10;65.36;97309.09;4982187;28;20072;-79
2021/09/25 03:29:51;;;;;;;5.43;4.22;;;;;;;13.16;65.31;97308.09;5032735;28;20026;-79
2021/09/25 03:32:17;;;;;;;6.95;5.00;;;;;;;13.15;65.45;97297.88;5014707;28;20037;-79
2021/09/25 03:34:42;;;;;;;5.68;4.43;;;;;;;13.22;65.33;97301.03;5014106;28;20033;-79
2021/09/25 03:37:10;;;;;;;7.18;4.75;;;;;;;13.18;65.22;97299.97;4998370;28;20052;-79
2021/09/25 03:39:36;;;;;;;6.72;4.80;;;;;;;13.28;65.39;97298.19;5014500;28;20783;-79
2021/09/25 03:42:02;;;;;;;5.55;4.03;;;;;;;13.28;65.07;97294.75;5014875;28;20116;-79
2021/09/25 03:44:27;;;;;;;6.00;4.28;;;;;;;13.29;64.35;97299.72;5014219;28;20047;-78
2021/09/25 03:46:53;;;;;;;6.60;4.43;;;;;;;13.24;64.62;97301.56;5014807;28;20392;-79
2021/09/25 03:49:18;;;;;;;6.55;4.47;;;;;;;13.20;64.19;97303.91;5032450;28;20025;-80
2021/09/25 03:51:44;;;;;;;6.13;3.92;;;;;;;13.12;64.02;97312.25;4997709;28;20025;-80
2021/09/25 03:54:09;;;;;;;5.25;4.00;;;;;;;13.09;63.93;97318.78;4997409;28;20524;-80
2021/09/25 03:56:34;;;;;;;5.22;3.78;;;;;;;13.01;63.73;97319.28;4997925;28;20480;-80
2021/09/25 03:59:00;;;;;;;6.00;3.90;;;;;;;12.99;63.63;97310.09;5014438;28;20033;-79
2021/09/25 04:01:25;;;;;;;4.32;3.70;;;;;;;12.97;63.73;97317.41;5014020;28;20044;-79
2021/09/25 04:03:50;;;;;;;5.50;4.05;;;;;;;12.86;64.03;97298.31;5013823;28;20393;-79
2021/09/25 04:06:16;;;;;;;5.30;4.03;;;;;;;12.86;64.21;97309.53;5013763;28;20029;-80
2021/09/25 04:08:41;;;;;;;4.40;3.75;;;;;;;12.80;64.20;97305.34;5032001;28;20034;-80
2021/09/25 04:11:07;;;;;;;4.60;4.00;;;;;;;12.85;64.41;97315.81;4998129;28;20049;-80
2021/09/25 04:13:32;;;;;;;4.93;3.70;;;;;;;12.84;64.19;97311.63;5014373;28;20519;-79
2021/09/25 04:15:57;;;;;;;5.00;3.92;;;;;;;12.81;64.56;97312.13;5014163;28;20513;-79
2021/09/25 04:18:23;;;;;;;5.03;4.30;;;;;;;12.83;64.83;97317.88;4990947;28;20528;-79
2021/09/25 04:20:48;;;;;;;7.10;4.10;;;;;;;12.78;65.09;97307.41;4994259;28;20121;-79
2021/09/25 04:23:14;;;;;;;5.47;4.10;;;;;;;12.77;64.76;97300.63;4977763;28;20033;-79
2021/09/25 04:25:39;;;;;;;4.88;3.70;;;;;;;12.74;64.96;97306.34;4993965;28;20461;-79
2021/09/25 04:28:06;;;;;;;5.53;4.25;;;;;;;12.69;65.35;97308.94;4994234;28;20038;-79
2021/09/25 04:30:32;;;;;;;5.43;3.97;;;;;;;12.71;65.26;97304.25;4978139;28;20025;-80
2021/09/25 04:32:58;;;;;;;6.47;4.80;;;;;;;12.75;65.31;97318.38;4977857;28;20084;-80
2021/09/25 04:35:24;;;;;;;5.93;4.70;;;;;;;12.75;65.27;97305.31;4994232;28;20065;-80
2021/09/25 04:37:50;;;;;;;8.10;5.20;;;;;;;12.73;65.20;97305.56;4994152;28;20061;-80
2021/09/25 04:40:15;;;;;;;6.78;4.65;;;;;;;12.78;65.38;97307.41;5011840;28;20034;-80
2021/09/25 04:42:42;;;;;;;6.57;5.35;;;;;;;12.80;65.06;97307.97;4993869;28;20436;-80
2021/09/25 04:45:12;;;;;;;7.25;4.95;;;;;;;12.80;64.91;97315.00;4978105;28;20099;-80
2021/09/25 04:47:41;;;;;;;6.97;4.18;;;;;;;12.77;64.50;97311.09;4978210;28;20048;-80
2021/09/25 04:50:07;;;;;;;5.65;4.50;;;;;;;12.79;64.30;97322.06;4961439;28;20143;-80
2021/09/25 04:52:32;;;;;;;5.80;4.30;;;;;;;12.77;64.37;97324.16;4977462;28;20037;-79
2021/09/25 04:54:58;;;;;;;4.90;3.78;;;;;;;12.72;64.68;97324.91;4993504;28;20034;-79
2021/09/25 04:57:23;;;;;;;4.43;3.50;;;;;;;12.63;64.17;97325.63;4977571;28;20026;-79
2021/09/25 04:59:48;;;;;;;5.57;3.22;;;;;;;12.50;64.06;97327.66;5010559;28;20030;-79
2021/09/25 05:02:14;;;;;;;7.47;3.55;;;;;;;12.42;64.26;97327.34;4977194;28;20355;-79
2021/09/25 05:04:39;;;;;;;4.25;3.33;;;;;;;12.36;64.47;97323.91;4977934;28;20041;-79
2021/09/25 05:07:05;;;;;;;4.78;3.42;;;;;;;12.34;63.92;97336.44;4980607;28;20598;-79
2021/09/25 05:09:30;;;;;;;5.82;3.35;;;;;;;12.26;63.91;97326.47;4997294;28;20037;-79
2021/09/25 05:11:55;;;;;;;5.38;4.05;;;;;;;12.23;64.54;97327.75;4980662;28;20037;-79
2021/09/25 05:14:20;;;;;;;4.50;3.00;;;;;;;12.19;64.45;97326.69;4980713;28;20030;-79
2021/09/25 05:16:46;;;;;;;3.67;3.10;;;;;;;12.20;64.61;97322.22;4980511;28;20030;-80
2021/09/25 05:19:11;;;;;;;4.70;3.70;;;;;;;12.14;64.38;97316.97;4964786;28;20029;-80
2021/09/25 05:21:37;;;;;;;5.22;3.80;;;;;;;12.15;65.25;97315.94;4980624;28;20068;-80
2021/09/25 05:24:03;;;;;;;6.05;3.75;;;;;;;12.20;65.18;97327.44;4997095;28;20091;-80
2021/09/25 05:26:29;;;;;;;5.28;4.38;;;;;;;12.21;65.34;97323.81;4983965;28;20066;-80
2021/09/25 05:28:54;;;;;;;5.18;3.95;;;;;;;12.26;65.18;97331.69;5016588;28;20400;-80
2021/09/25 05:31:19;;;;;;;4.72;3.67;;;;;;;12.29;64.83;97337.19;4999922;28;20033;-80
2021/09/25 05:33:45;;;;;;;6.88;4.70;;;;;;;12.30;65.57;97338.78;5000422;28;20069;-80
2021/09/25 05:36:10;;;;;;;5.40;4.05;;;;;;;12.33;65.58;97329.63;5000592;28;20026;-80
2021/09/25 05:38:35;;;;;;;5.47;3.75;;;;;;;12.37;65.54;97328.09;5000721;28;20072;-80
2021/09/25 05:41:01;;;;;;;7.38;5.55;;;;;;;12.47;66.02;97328.16;5016935;28;20040;-79
2021/09/25 05:43:26;;;;;;;8.48;4.82;;;;;;;12.55;66.41;97330.28;5016700;28;20461;-79
2021/09/25 05:45:52;;;;;;;8.75;5.32;;;;;;;12.65;66.76;97328.78;5010357;28;20477;-80
2021/09/25 05:48:17;;;;;;;6.85;4.93;;;;;;;12.74;66.73;97327.25;4997631;28;20056;-80
2021/09/25 05:50:42;;;;;;;6.50;5.03;;;;;;;12.77;66.41;97326.75;4996859;28;20103;-79
2021/09/25 05:53:08;;;;;;;6.72;4.40;;;;;;;12.85;66.23;97328.88;4980758;28;20041;-79
2021/09/25 05:55:33;;;;;;;6.18;4.13;;;;;;;12.90;65.98;97328.09;4997233;28;20478;-80
2021/09/25 05:58:01;;;;;;;8.38;4.22;;;;;;;12.95;66.28;97332.56;4980821;28;20030;-80
2021/09/25 06:00:28;;;;;;;7.40;4.40;;;;;;;12.95;66.27;97332.56;5014891;28;20034;-80
2021/09/25 06:02:54;;;;;;;7.53;4.13;;;;;;;12.98;65.96;97325.00;4996666;28;20045;-80
2021/09/25 06:05:19;;;;;;;6.65;3.97;;;;;;;13.07;66.04;97333.13;4996617;28;20038;-80
2021/09/25 06:07:45;;;;;;;6.20;4.38;;;;;;;13.18;66.17;97328.72;4980809;28;20037;-80
2021/09/25 06:10:10;;;;;;;4.97;3.85;;;;;;;13.27;65.85;97335.81;4998021;28;20045;-80
2021/09/25 06:12:36;;;;;;;6.32;4.45;;;;;;;13.34;66.10;97324.38;5000014;28;20029;-80
2021/09/25 06:15:02;;;;;;;6.85;4.18;;;;;;;13.39;65.93;97314.69;5016201;28;20064;-80
2021/09/25 06:17:28;;;;;;;6.45;4.63;;;;;;;13.50;65.99;97331.19;5015607;28;20038;-80
2021/09/25 06:19:53;;;;;;;6.28;4.78;;;;;;;13.58;65.67;97325.44;4999798;28;20465;-80
2021/09/25 06:22:18;;;;;;;6.03;4.25;;;;;;;13.63;65.61;97320.22;4999918;28;20025;-79
2021/09/25 06:24:44;;;;;;;8.07;4.78;;;;;;;13.71;65.72;97320.75;5015945;28;20060;-79
2021/09/25 06:27:09;;;;;;;6.93;4.70;;;;;;;13.82;65.40;97323.13;4999662;28;20033;-80
2021/09/25 06:29:35;;;;;;;4.72;3.83;;;;;;;13.90;65.30;97321.81;5032773;28;20030;-79
2021/09/25 06:32:00;;;;;;;6.32;4.55;;;;;;;14.02;65.53;97319.72;5015836;28;20045;-79
2021/09/25 06:34:25;;;;;;;5.35;4.13;;;;;;;14.18;64.77;97323.09;4999715;28;20612;-79
2021/09/25 06:36:51;;;;;;;8.23;4.40;;;;;;;14.32;65.09;97320.72;4999210;28;20037;-79
2021/09/25 06:39:16;;;;;;;6.10;4.72;;;;;;;14.43;64.93;97322.28;4999668;28;20495;-79
2021/09/25 06:41:42;;;;;;;6.50;4.07;;;;;;;14.59;64.37;97332.78;4999874;28;20044;-80
2021/09/25 06:44:07;;;;;;;6.85;3.80;;;;;;;14.69;64.24;97331.97;4998846;28;20033;-80
2021/09/25 06:46:33;;;;;;;6.88;5.28;;;;;;;14.78;64.90;97331.13;5015843;28;20026;-80
2021/09/25 06:48:58;;;;;;;7.13;5.20;;;;;;;14.94;64.44;97333.69;4999488;28;20058;-80
2021/09/25 06:51:24;;;;;;;6.40;4.90;;;;;;;15.08;64.02;97345.19;5015419;28;20108;-80
2021/09/25 06:53:49;;;;;;;7.60;5.53;;;;;;;15.20;63.68;97338.84;4998993;28;20029;-80
2021/09/25 06:56:15;;;;;;;6.18;4.75;;;;;;;15.22;63.67;97323.63;4999118;28;20416;-80
2021/09/25 06:58:40;;;;;;;6.55;5.00;;;;;;;15.33;63.31;97320.66;4998969;28;20029;-80
2021/09/25 07:01:05;;;;;;;6.60;4.95;;;;;;;15.38;63.66;97329.56;5024453;28;20480;-80
2021/09/25 07:03:31;;;;;;;6.40;4.40;;;;;;;15.54;63.07;97325.78;4995682;28;20037;-79
2021/09/25 07:05:56;;;;;;;6.68;5.00;;;;;;;15.78;62.50;97328.56;4979408;28;20026;-80
2021/09/25 07:08:21;;;;;;;5.85;4.65;;;;;;;15.83;62.61;97319.84;4987598;28;20475;-79
2021/09/25 07:10:47;;;;;;;6.60;4.32;;;;;;;16.04;62.22;97323.88;5015325;28;20038;-79
2021/09/25 07:13:13;;;;;;;9.05;4.85;;;;;;;16.35;61.64;97328.88;4998295;28;20029;-80
2021/09/25 07:15:40;;;;;;;5.53;4.10;;;;;;;16.52;61.51;97338.16;4998959;28;20036;-79
2021/09/25 07:18:05;;;;;;;4.57;4.03;;;;;;;16.70;61.04;97334.03;5022083;28;20569;-79
2021/09/25 07:20:31;;;;;;;4.10;3.70;;;;;;;16.77;60.33;97335.25;5004048;28;20037;-80
2021/09/25 07:22:56;;;;;;;4.20;3.20;;;;;;;16.88;60.65;97335.16;4997936;28;20091;-80
2021/09/25 07:25:22;;;;;;;3.58;3.22;;;;;;;17.14;60.04;97327.78;4998502;28;20029;-80
2021/09/25 07:27:49;;;;;;;3.83;3.25;;;;;;;17.22;59.50;97337.63;4972209;28;20618;-80
2021/09/25 07:30:14;;;;;;;3.90;3.47;;;;;;;17.42;59.30;97350.53;4987207;28;20496;-80
2021/09/25 07:32:40;;;;;;;3.67;3.20;;;;;;;17.61;58.81;97349.75;4981139;28;20034;-80
2021/09/25 07:35:06;;;;;;;4.13;3.50;;;;;;;17.71;58.97;97344.34;4978633;28;20033;-80
2021/09/25 07:37:31;;;;;;;4.03;3.35;;;;;;;18.01;58.39;97344.97;4978766;28;20073;-80
2021/09/25 07:39:57;;;;;;;4.60;3.65;;;;;;;18.04;58.57;97341.75;5013457;28;20050;-80
2021/09/25 07:42:22;;;;;;;3.67;3.20;;;;;;;18.33;57.94;97351.28;5016209;28;20661;-80
2021/09/25 07:44:48;;;;;;;3.90;3.50;;;;;;;18.49;58.11;97344.69;4993855;28;20045;-79
2021/09/25 07:47:13;;;;;;;4.18;3.35;;;;;;;18.69;57.29;97348.78;4998054;28;20073;-80
2021/09/25 07:49:39;;;;;;;4.47;3.45;;;;;;;18.79;57.78;97349.69;4998243;28;20577;-79
2021/09/25 07:52:05;;;;;;;4.85;3.80;;;;;;;19.03;57.31;97349.50;5014243;28;20057;-79
2021/09/25 07:54:30;;;;;;;6.38;4.53;;;;;;;19.20;57.47;97352.31;4997743;28;20534;-79
2021/09/25 07:56:55;;;;;;;4.97;4.15;;;;;;;19.43;55.80;97342.59;4981320;28;20041;-79
2021/09/25 07:59:21;;;;;;;5.88;4.28;;;;;;;19.52;55.68;97347.97;4981918;28;20021;-79
2021/09/25 08:01:47;;;;;;;5.32;4.10;;;;;;;19.73;55.54;97353.56;5014263;28;20072;-79
2021/09/25 08:04:13;;;;;;;5.38;4.05;;;;;;;19.90;54.62;97352.94;5013985;28;20033;-79
2021/09/25 08:06:38;;;;;;;5.65;4.63;;;;;;;20.14;54.13;97346.56;4995053;28;20083;-80
2021/09/25 08:09:04;;;;;;;5.82;4.20;;;;;;;20.42;53.60;97359.63;4996652;28;20359;-80
2021/09/25 08:11:29;;;;;;;5.60;4.30;;;;;;;20.60;53.54;97363.91;5013765;28;20047;-80
2021/09/25 08:13:54;;;;;;;4.78;4.30;;;;;;;20.79;53.27;97355.00;5013580;28;20045;-80
2021/09/25 08:16:20;;;;;;;5.05;3.92;;;;;;;20.93;52.98;97350.34;5012237;28;20492;-79
2021/09/25 08:18:45;;;;;;;4.57;4.15;;;;;;;21.05;53.53;97350.53;5007622;28;20550;-79
2021/09/25 08:21:11;;;;;;;7.53;4.20;;;;;;;21.13;53.23;97347.13;5013626;28;20621;-77
2021/09/25 08:23:36;;;;;;;4.47;3.75;;;;;;;21.42;52.77;97353.72;4979029;28;20124;-80
2021/09/25 08:26:02;;;;;;;4.93;4.18;;;;;;;21.72;51.59;97353.13;5011562;28;20028;-79
2021/09/25 08:28:27;;;;;;;5.35;3.60;;;;;;;21.86;51.67;97359.81;5012347;28;20034;-79
2021/09/25 08:30:53;;;;;;;4.53;4.13;;;;;;;21.93;51.53;97358.56;5011725;28;20080;-79
2021/09/25 08:33:18;;;;;;;4.55;3.85;;;;;;;22.17;50.23;97361.47;4979122;28;20128;-79
2021/09/25 08:35:43;;;;;;;6.53;4.38;;;;;;;22.15;50.56;97361.03;4995244;28;20571;-77
2021/09/25 08:38:09;;;;;;;4.68;3.60;;;;;;;22.17;50.54;97353.53;5011367;28;20068;-77
2021/09/25 08:40:34;;;;;;;4.22;3.50;;;;;;;22.02;50.73;97351.38;4978201;28;20037;-79
2021/09/25 08:43:00;;;;;;;4.18;3.75;;;;;;;22.37;49.99;97352.09;5011220;28;20083;-76
2021/09/25 08:45:26;;;;;;;4.57;4.00;;;;;;;22.66;48.71;97347.97;4994842;28;20500;-77
2021/09/25 08:47:54;;;;;;;4.35;3.55;;;;;;;22.65;48.21;97353.56;4978234;28;20041;-77
2021/09/25 08:50:19;;;;;;;4.72;4.18;;;;;;;23.10;46.33;97353.06;4994326;28;20021;-77
2021/09/25 08:52:44;;;;;;;5.40;4.40;;;;;;;23.28;46.17;97351.84;5010803;28;20440;-77
2021/09/25 08:55:11;;;;;;;5.10;4.20;;;;;;;23.18;46.33;97346.91;4994496;28;20100;-77
2021/09/25 08:57:39;;;;;;;6.65;4.28;;;;;;;23.22;46.63;97345.19;5010869;28;20117;-77
2021/09/25 09:00:35;;;;;;;4.32;3.63;;;;;;;23.17;46.41;97348.81;4994938;28;20380;-77
2021/09/25 09:03:17;;;;;;;5.68;4.10;;;;;;;23.24;45.94;97332.34;4993954;28;20038;-77
2021/09/25 09:05:43;;;;;;;4.57;4.18;;;;;;;23.80;44.33;97325.97;4978203;28;20033;-78
2021/09/25 09:08:08;;;;;;;5.28;4.25;;;;;;;23.36;46.49;97335.09;5010890;28;20032;-77
2021/09/25 09:10:37;;;;;;;5.03;4.18;;;;;;;23.37;45.33;97338.50;4978265;28;20025;-77
2021/09/25 09:13:03;;;;;;;4.15;3.75;;;;;;;23.54;44.87;97340.25;4994176;28;20109;-77
2021/09/25 09:15:39;;;;;;;4.75;3.75;;;;;;;23.46;44.32;97351.72;4977981;28;20387;-76
2021/09/25 09:18:14;;;;;;;3.85;3.40;;;;;;;23.79;45.25;97348.38;5010554;28;20056;-77
2021/09/25 09:20:40;;;;;;;4.03;3.42;;;;;;;24.50;43.25;97342.00;4978065;28;20120;-77
2021/09/25 09:23:19;;;;;;;3.80;3.50;;;;;;;24.58;43.97;97356.38;4993873;28;20620;-77
2021/09/25 09:25:45;;;;;;;5.18;3.85;;;;;;;24.91;43.18;97347.50;4994462;28;20040;-77
2021/09/25 09:28:26;;;;;;;5.80;3.88;;;;;;;24.38;43.45;97339.34;5010568;28;20033;-77
2021/09/25 09:30:56;;;;;;;4.13;3.72;;;;;;;24.63;43.10;97342.84;4994158;28;20532;-76
2021/09/25 09:34:07;;;;;;;3.33;3.03;;;;;;;24.62;42.22;97346.59;4977493;28;20500;-77
2021/09/25 09:36:32;;;;;;;4.30;3.90;;;;;;;24.99;41.81;97335.94;4986101;28;20403;-77
2021/09/25 09:38:59;;;;;;;4.85;3.65;;;;;;;24.91;43.96;97337.59;4969915;28;20049;-77
2021/09/25 09:41:35;;;;;;;3.75;3.45;;;;;;;24.98;43.82;97342.38;4953862;28;20042;-77
2021/09/25 09:44:11;;;;;;;3.80;3.35;;;;;;;25.22;42.14;97334.38;4953308;28;20023;-76
2021/09/25 09:46:42;;;;;;;4.07;3.75;;;;;;;25.30;41.64;97329.28;4970033;28;20081;-77
2021/09/25 09:49:13;;;;;;;4.63;3.83;;;;;;;25.45;40.99;97325.91;4953865;28;20137;-77
2021/09/25 09:51:41;;;;;;;4.20;3.80;;;;;;;25.76;40.33;97329.78;4954887;28;20038;-76
2021/09/25 09:54:36;;;;;;;4.03;3.63;;;;;;;25.41;40.86;97331.13;4972975;28;20034;-77
2021/09/25 09:57:11;;;;;;;3.85;3.45;;;;;;;25.87;40.96;97338.81;4951739;28;20414;-76
2021/09/25 09:59:39;;;;;;;5.30;3.67;;;;;;;25.87;40.39;97336.16;4973930;28;20042;-77
2021/09/25 10:02:05;;;;;;;5.45;3.53;;;;;;;25.97;40.51;97325.03;4973052;28;20105;-77
2021/09/25 10:04:31;;;;;;;3.75;3.45;;;;;;;26.17;40.88;97331.25;4956439;28;20038;-77
2021/09/25 10:06:57;;;;;;;4.05;3.22;;;;;;;26.29;41.00;97332.31;4971195;28;20049;-77
2021/09/25 10:09:24;;;;;;;3.83;3.53;;;;;;;26.52;39.97;97329.81;4981237;28;20075;-77
2021/09/25 10:11:55;;;;;;;5.45;3.72;;;;;;;26.45;39.96;97326.97;5013922;28;20439;-77
2021/09/25 10:14:23;;;;;;;3.72;3.40;;;;;;;26.87;40.60;97326.41;4980775;28;20265;-77
2021/09/25 10:16:50;;;;;;;3.80;3.50;;;;;;;26.96;39.79;97326.25;4980912;28;20083;-77
2021/09/25 10:19:18;;;;;;;4.63;3.58;;;;;;;26.69;39.58;97331.38;4980755;28;20044;-77
2021/09/25 10:21:46;;;;;;;6.25;3.55;;;;;;;26.68;40.11;97330.59;4997329;28;20064;-77
2021/09/25 10:24:15;;;;;;;6.47;3.65;;;;;;;26.61;40.50;97326.94;5012831;28;20669;-76
2021/09/25 10:26:44;;;;;;;3.58;3.28;;;;;;;26.66;40.58;97319.47;4997220;28;20029;-77
2021/09/25 10:29:11;;;;;;;3.40;3.03;;;;;;;26.83;40.46;97325.56;4997384;28;20029;-77
2021/09/25 10:31:36;;;;;;;3.92;3.55;;;;;;;27.07;39.42;97314.66;5013147;28;20239;-77
2021/09/25 10:34:26;;;;;;;3.47;3.17;;;;;;;26.98;38.50;97319.44;4996568;28;20095;-76
2021/09/25 10:36:54;;;;;;;3.47;3.17;;;;;;;27.60;38.75;97305.44;4996807;28;20083;-76
2021/09/25 10:39:29;;;;;;;3.60;3.28;;;;;;;27.69;38.50;97305.22;4996872;28;20064;-76
2021/09/25 10:42:09;;;;;;;3.10;2.90;;;;;;;27.52;37.17;97315.22;4996817;28;20036;-76
2021/09/25 10:44:40;;;;;;;3.30;3.00;;;;;;;27.66;37.15;97306.72;5010236;28;20125;-76
2021/09/25 10:47:09;;;;;;;3.47;3.17;;;;;;;27.84;36.74;97304.34;4976941;28;20092;-77
2021/09/25 10:49:40;;;;;;;3.45;3.15;;;;;;;27.57;36.92;97303.47;4961176;28;20026;-77
2021/09/25 10:52:06;;;;;;;3.28;2.97;;;;;;;28.16;37.21;97304.94;4993247;28;20062;-77
2021/09/25 10:54:31;;;;;;;3.50;3.00;;;;;;;28.26;36.24;97302.78;5012573;28;20057;-77
2021/09/25 10:56:57;;;;;;;2.90;2.70;;;;;;;28.70;36.08;97297.00;4980543;28;20037;-76
2021/09/25 10:59:23;;;;;;;3.40;3.10;;;;;;;29.31;34.54;97295.16;4994427;28;20029;-77
2021/09/25 11:01:53;;;;;;;3.15;2.95;;;;;;;28.56;36.01;97298.31;5009515;28;20415;-77
2021/09/25 11:04:22;;;;;;;3.92;2.72;;;;;;;29.02;34.31;97300.13;4980365;28;20117;-78
2021/09/25 11:06:52;;;;;;;3.67;2.47;;;;;;;28.99;33.61;97284.00;4980289;28;20496;-77
2021/09/25 11:09:29;;;;;;;3.00;2.80;;;;;;;28.66;33.11;97285.47;5008878;28;20018;-77
2021/09/25 11:12:09;;;;;;;4.40;2.65;;;;;;;29.05;32.46;97277.19;4987087;28;20061;-78
2021/09/25 11:14:46;;;;;;;2.90;2.70;;;;;;;29.78;31.41;97274.97;5002853;28;20029;-77
2021/09/25 11:17:14;;;;;;;2.70;2.50;;;;;;;30.17;30.11;97276.47;4976438;28;20092;-78
2021/09/25 11:19:54;;;;;;;2.35;2.15;;;;;;;30.52;29.05;97277.91;5026370;28;20036;-77
2021/09/25 11:22:22;;;;;;;2.92;2.20;;;;;;;30.74;27.41;97282.31;4994377;28;20429;-77
2021/09/25 11:24:55;;;;;;;2.40;2.30;;;;;;;31.07;28.48;97269.81;4993134;28;20053;-77
2021/09/25 11:27:29;;;;;;;2.38;2.20;;;;;;;31.41;28.78;97272.25;4991787;28;20058;-77
2021/09/25 11:29:56;;;;;;;2.97;2.78;;;;;;;30.89;27.37;97264.31;4992492;28;20033;-77
2021/09/25 11:32:36;;;;;;;2.45;2.25;;;;;;;31.20;29.11;97261.41;4992367;28;20064;-77